createdAt,value
2018-07-11T00:00:00.000Z,98610
2018-07-11T00:05:00.000Z,98602
2018-07-11T00:10:00.000Z,98587
2018-07-11T00:15:00.000Z,98586
2018-07-11T00:20:00.000Z,98563
2018-07-11T00:25:00.000Z,98570
2018-07-11T00:30:00.000Z,98559
2018-07-11T00:35:00.000Z,98559
2018-07-11T00:40:00.000Z,98563
2018-07-11T00:45:00.000Z,98567
2018-07-11T00:50:00.000Z,98568
2018-07-11T00:55:00.000Z,98558
2018-07-11T01:00:00.000Z,98556
2018-07-11T01:05:00.000Z,98551
2018-07-11T01:10:00.000Z,98546
2018-07-11T01:15:00.000Z,98531
2018-07-11T01:20:00.000Z,98524
2018-07-11T01:25:00.000Z,98527
2018-07-11T01:30:00.000Z,98526
2018-07-11T01:35:00.000Z,98532
2018-07-11T01:40:00.000Z,98537
2018-07-11T01:45:00.000Z,98551
2018-07-11T01:50:00.000Z,98545
2018-07-11T01:55:00.000Z,98544
2018-07-11T02:00:00.000Z,98537
2018-07-11T02:05:00.000Z,98535
2018-07-11T02:10:00.000Z,98544
2018-07-11T02:15:00.000Z,98540
2018-07-11T02:20:00.000Z,98531
2018-07-11T02:25:00.000Z,98541
2018-07-11T02:30:00.000Z,98542
2018-07-11T02:35:00.000Z,98521
2018-07-11T02:40:00.000Z,98525
2018-07-11T02:45:00.000Z,98521
2018-07-11T02:50:00.000Z,98521
2018-07-11T02:55:00.000Z,98520
2018-07-11T03:00:00.000Z,98527
2018-07-11T03:05:00.000Z,98529
2018-07-11T03:10:00.000Z,98532
2018-07-11T03:15:00.000Z,98541
2018-07-11T03:20:00.000Z,98538
2018-07-11T03:25:00.000Z,98547
2018-07-11T03:30:00.000Z,98544
2018-07-11T03:35:00.000Z,98560
2018-07-11T03:40:00.000Z,98553
2018-07-11T03:45:00.000Z,98559
2018-07-11T03:50:00.000Z,98551
2018-07-11T03:55:00.000Z,98554
2018-07-11T04:00:00.000Z,98554
2018-07-11T04:05:00.000Z,98556
2018-07-11T04:10:00.000Z,98551
2018-07-11T04:15:00.000Z,98552
2018-07-11T04:20:00.000Z,98546
2018-07-11T04:25:00.000Z,98548
2018-07-11T04:30:00.000Z,98559
2018-07-11T04:35:00.000Z,98563
2018-07-11T04:40:00.000Z,98567
2018-07-11T04:45:00.000Z,98579
2018-07-11T04:51:00.000Z,98565
2018-07-11T04:56:00.000Z,98586
2018-07-11T05:01:00.000Z,98582
2018-07-11T05:06:00.000Z,98587
2018-07-11T05:11:00.000Z,98593
2018-07-11T05:16:00.000Z,98580
2018-07-11T05:21:00.000Z,98583
2018-07-11T05:26:00.000Z,98578
2018-07-11T05:31:00.000Z,98585
2018-07-11T05:36:00.000Z,98582
2018-07-11T05:41:00.000Z,98589
2018-07-11T05:46:00.000Z,98595
2018-07-11T05:51:00.000Z,98606
2018-07-11T05:56:00.000Z,98604
2018-07-11T06:01:00.000Z,98600
2018-07-11T06:06:00.000Z,98610
2018-07-11T06:11:00.000Z,98606
2018-07-11T06:16:00.000Z,98617
2018-07-11T06:21:00.000Z,98628
2018-07-11T06:26:00.000Z,98635
2018-07-11T06:31:00.000Z,98628
2018-07-11T06:36:00.000Z,98633
2018-07-11T06:41:00.000Z,98629
2018-07-11T06:46:00.000Z,98625
2018-07-11T06:51:00.000Z,98626
2018-07-11T06:56:00.000Z,98622
2018-07-11T07:01:00.000Z,98619
2018-07-11T07:06:00.000Z,98629
2018-07-11T07:11:00.000Z,98641
2018-07-11T07:16:00.000Z,98636
2018-07-11T07:21:00.000Z,98647
2018-07-11T07:26:00.000Z,98642
2018-07-11T07:31:00.000Z,98645
2018-07-11T07:36:00.000Z,98640
2018-07-11T07:41:00.000Z,98626
2018-07-11T07:46:00.000Z,98635
2018-07-11T07:51:00.000Z,98638
2018-07-11T07:56:00.000Z,98644
2018-07-11T08:01:00.000Z,98644
2018-07-11T08:06:00.000Z,98643
2018-07-11T08:11:00.000Z,98647
2018-07-11T08:16:00.000Z,98652
2018-07-11T08:21:00.000Z,98642
2018-07-11T08:26:00.000Z,98631
2018-07-11T08:31:00.000Z,98637
2018-07-11T08:36:00.000Z,98640
2018-07-11T08:41:00.000Z,98641
2018-07-11T08:46:00.000Z,98649
2018-07-11T08:51:00.000Z,98646
2018-07-11T08:56:00.000Z,98635
2018-07-11T09:01:00.000Z,98632
2018-07-11T09:06:00.000Z,98636
2018-07-11T09:11:00.000Z,98632
2018-07-11T09:16:00.000Z,98623
2018-07-11T09:21:00.000Z,98630
2018-07-11T09:26:00.000Z,98635
2018-07-11T09:31:00.000Z,98633
2018-07-11T09:36:00.000Z,98629
2018-07-11T09:41:00.000Z,98633
2018-07-11T09:46:00.000Z,98632
2018-07-11T09:51:00.000Z,98633
2018-07-11T09:56:00.000Z,98628
2018-07-11T10:01:00.000Z,98633
2018-07-11T10:06:00.000Z,98644
2018-07-11T10:11:00.000Z,98632
2018-07-11T10:16:00.000Z,98642
2018-07-11T10:21:00.000Z,98642
2018-07-11T10:26:00.000Z,98641
2018-07-11T10:31:00.000Z,98633
2018-07-11T10:36:00.000Z,98638
2018-07-11T10:42:00.000Z,98629
2018-07-11T10:47:00.000Z,98621
2018-07-11T10:52:00.000Z,98618
2018-07-11T10:57:00.000Z,98627
2018-07-11T11:02:00.000Z,98619
2018-07-11T11:07:00.000Z,98622
2018-07-11T11:12:00.000Z,98619
2018-07-11T11:17:00.000Z,98616
2018-07-11T11:22:00.000Z,98610
2018-07-11T11:27:00.000Z,98607
2018-07-11T11:32:00.000Z,98599
2018-07-11T11:37:00.000Z,98592
2018-07-11T11:42:00.000Z,98593
2018-07-11T11:47:00.000Z,98601
2018-07-11T11:52:00.000Z,98589
2018-07-11T11:57:00.000Z,98595
2018-07-11T12:02:00.000Z,98597
2018-07-11T12:07:00.000Z,98594
2018-07-11T12:12:00.000Z,98585
2018-07-11T12:17:00.000Z,98602
2018-07-11T12:22:00.000Z,98595
2018-07-11T12:27:00.000Z,98591
2018-07-11T12:32:00.000Z,98595
2018-07-11T12:37:00.000Z,98596
2018-07-11T12:42:00.000Z,98603
2018-07-11T12:47:00.000Z,98595
2018-07-11T12:52:00.000Z,98613
2018-07-11T12:57:00.000Z,98613
2018-07-11T13:02:00.000Z,98617
2018-07-11T13:07:00.000Z,98613
2018-07-11T13:12:00.000Z,98620
2018-07-11T13:17:00.000Z,98610
2018-07-11T13:22:00.000Z,98615
2018-07-11T13:27:00.000Z,98621
2018-07-11T13:32:00.000Z,98625
2018-07-11T13:37:00.000Z,98619
2018-07-11T13:42:00.000Z,98627
2018-07-11T13:47:00.000Z,98630
2018-07-11T13:52:00.000Z,98632
2018-07-11T13:57:00.000Z,98634
2018-07-11T14:02:00.000Z,98630
2018-07-11T14:07:00.000Z,98639
2018-07-11T14:12:00.000Z,98642
2018-07-11T14:17:00.000Z,98643
2018-07-11T14:22:00.000Z,98649
2018-07-11T14:27:00.000Z,98658
2018-07-11T14:32:00.000Z,98655
2018-07-11T14:37:00.000Z,98661
2018-07-11T14:42:00.000Z,98666
2018-07-11T14:47:00.000Z,98669
2018-07-11T14:52:00.000Z,98672
2018-07-11T14:57:00.000Z,98674
2018-07-11T15:02:00.000Z,98678
2018-07-11T15:07:00.000Z,98682
2018-07-11T15:12:00.000Z,98676
2018-07-11T15:17:00.000Z,98665
2018-07-11T15:22:00.000Z,98668
2018-07-11T15:27:00.000Z,98658
2018-07-11T15:32:00.000Z,98632
2018-07-11T15:37:00.000Z,98635
2018-07-11T15:42:00.000Z,98623
2018-07-11T15:47:00.000Z,98630
2018-07-11T15:52:00.000Z,98632
2018-07-11T15:57:00.000Z,98623
2018-07-11T16:02:00.000Z,98614
2018-07-11T16:07:00.000Z,98596
2018-07-11T16:12:00.000Z,98590
2018-07-11T16:17:00.000Z,98608
2018-07-11T16:22:00.000Z,98608
2018-07-11T16:27:00.000Z,98619
2018-07-11T16:32:00.000Z,98636
2018-07-11T16:38:00.000Z,98628
2018-07-11T16:43:00.000Z,98638
2018-07-11T16:48:00.000Z,98641
2018-07-11T16:53:00.000Z,98644
2018-07-11T16:58:00.000Z,98651
2018-07-11T17:03:00.000Z,98648
2018-07-11T17:08:00.000Z,98656
2018-07-11T17:13:00.000Z,98664
2018-07-11T17:18:00.000Z,98650
2018-07-11T17:23:00.000Z,98652
2018-07-11T17:28:00.000Z,98649
2018-07-11T17:33:00.000Z,98663
2018-07-11T17:38:00.000Z,98668
2018-07-11T17:43:00.000Z,98671
2018-07-11T17:48:00.000Z,98667
2018-07-11T17:53:00.000Z,98665
2018-07-11T17:58:00.000Z,98653
2018-07-11T18:03:00.000Z,98656
2018-07-11T18:08:00.000Z,98663
2018-07-11T18:13:00.000Z,98661
2018-07-11T18:18:00.000Z,98667
2018-07-11T18:23:00.000Z,98667
2018-07-11T18:28:00.000Z,98680
2018-07-11T18:33:00.000Z,98692
2018-07-11T18:38:00.000Z,98684
2018-07-11T18:43:00.000Z,98685
2018-07-11T18:48:00.000Z,98696
2018-07-11T18:53:00.000Z,98683
2018-07-11T18:58:00.000Z,98681
2018-07-11T19:03:00.000Z,98694
2018-07-11T19:08:00.000Z,98677
2018-07-11T19:13:00.000Z,98694
2018-07-11T19:18:00.000Z,98694
2018-07-11T19:23:00.000Z,98706
2018-07-11T19:28:00.000Z,98720
2018-07-11T19:33:00.000Z,98717
2018-07-11T19:38:00.000Z,98713
2018-07-11T19:43:00.000Z,98712
2018-07-11T19:48:00.000Z,98711
2018-07-11T19:53:00.000Z,98710
2018-07-11T19:58:00.000Z,98716
2018-07-11T20:03:00.000Z,98710
2018-07-11T20:08:00.000Z,98719
2018-07-11T20:13:00.000Z,98716
2018-07-11T20:18:00.000Z,98710
2018-07-11T20:23:00.000Z,98725
2018-07-11T20:28:00.000Z,98728
2018-07-11T20:33:00.000Z,98719
2018-07-11T20:38:00.000Z,98722
2018-07-11T20:43:00.000Z,98721
2018-07-11T20:48:00.000Z,98729
2018-07-11T20:53:00.000Z,98732
2018-07-11T20:58:00.000Z,98722
2018-07-11T21:03:00.000Z,98716
2018-07-11T21:08:00.000Z,98719
2018-07-11T21:13:00.000Z,98720
2018-07-11T21:18:00.000Z,98728
2018-07-11T21:23:00.000Z,98728
2018-07-11T21:28:00.000Z,98729
2018-07-11T21:33:00.000Z,98723
2018-07-11T21:38:00.000Z,98728
2018-07-11T21:43:00.000Z,98731
2018-07-11T21:48:00.000Z,98729
2018-07-11T21:53:00.000Z,98740
2018-07-11T21:58:00.000Z,98741
2018-07-11T22:03:00.000Z,98731
2018-07-11T22:08:00.000Z,98739
2018-07-11T22:13:00.000Z,98722
2018-07-11T22:18:00.000Z,98727
2018-07-11T22:23:00.000Z,98741
2018-07-11T22:28:00.000Z,98753
2018-07-11T22:33:00.000Z,98747
2018-07-11T22:38:00.000Z,98753
2018-07-11T22:44:00.000Z,98757
2018-07-11T22:49:00.000Z,98742
2018-07-11T22:54:00.000Z,98748
2018-07-11T22:59:00.000Z,98742
2018-07-11T23:04:00.000Z,98731
2018-07-11T23:09:00.000Z,98724
2018-07-11T23:14:00.000Z,98722
2018-07-11T23:19:00.000Z,98727
2018-07-11T23:24:00.000Z,98727
2018-07-11T23:29:00.000Z,98735
2018-07-11T23:34:00.000Z,98743
2018-07-11T23:39:00.000Z,98741
2018-07-11T23:44:00.000Z,98741
2018-07-11T23:49:00.000Z,98737
2018-07-11T23:54:00.000Z,98733
2018-07-11T23:59:00.000Z,98742
